This is the latest recevied weather packets stored in our database for station/object EB1HRW. If no packets are shown the sender has not sent any weather packets the latest 10 day(s).
| Time | Temp. | Humidity | Pressure | Rain* | Wind** | Luminosity | Snow |
|---|---|---|---|---|---|---|---|
| 1778108038 | 11.11° C | 73% | 1011 hPa | 0 mm | - | - | - |
| 1778107137 | 11.11° C | 72% | 1011.2 hPa | 0 mm | - | - | - |
| 1778106237 | 11.11° C | 73% | 1011.2 hPa | 0 mm | - | - | - |
| 1778105339 | 11.67° C | 72% | 1011.1 hPa | 0 mm | - | - | - |
| 1778104438 | 11.67° C | 72% | 1011.3 hPa | 0 mm | - | - | - |
| 1778103537 | 11.67° C | 70% | 1011.2 hPa | 0 mm | - | - | - |
| 1778102638 | 11.67° C | 68% | 1011.2 hPa | 0 mm | - | - | - |
| 1778101738 | 12.22° C | 69% | 1011.4 hPa | 0 mm | - | - | - |
| 1778100837 | 12.78° C | 69% | 1011.3 hPa | 0 mm | - | - | - |
| 1778099938 | 12.78° C | 66% | 1011.2 hPa | 0 mm | - | - | - |
| 1778098138 | 13.33° C | 58% | 1011 hPa | 0 mm | - | - | - |
| 1778097237 | 13.89° C | 59% | 1010.9 hPa | 0 mm | - | - | - |
| 1778096338 | 14.44° C | 57% | 1010.8 hPa | 0 mm | - | - | - |
| 1778095438 | 15° C | 54% | 1010.6 hPa | 0 mm | - | - | - |
| 1778094537 | 15.56° C | 51% | 1010.6 hPa | 0 mm | - | - | - |
| 1778092739 | 16.11° C | 47% | 1010.7 hPa | 0 mm | - | - | - |
| 1778090938 | 16.67° C | 47% | 1010.6 hPa | 0 mm | - | - | - |
| 1778090037 | 16.67° C | 47% | 1010.6 hPa | 0 mm | - | - | - |
| 1778089137 | 16.67° C | 47% | 1010.7 hPa | 0 mm | - | - | - |
| 1778088238 | 16.67° C | 48% | 1010.8 hPa | 0 mm | - | - | - |
| 1778087338 | 17.22° C | 44% | 1010.8 hPa | 0 mm | - | - | - |
| 1778084638 | 16.67° C | 45% | 1011.3 hPa | 0 mm | - | - | - |
| 1778083738 | 16.67° C | 45% | 1011.4 hPa | 0 mm | - | - | - |
| 1778082839 | 16.67° C | 45% | 1011.5 hPa | 0 mm | - | - | - |
| 1778081937 | 16.67° C | 46% | 1011.5 hPa | 0 mm | - | - | - |
* Rain latest hour (hover to see other rain measurements)
** Current wind speed in m/s (hover to see current wind gust speed)